createdAt,value
2022-08-17T00:00:33.184Z,19.90
2022-08-17T00:05:35.633Z,19.80
2022-08-17T00:10:37.174Z,19.60
2022-08-17T00:15:38.745Z,19.50
2022-08-17T00:20:40.377Z,19.40
2022-08-17T00:25:42.026Z,19.40
2022-08-17T00:30:53.042Z,19.40
2022-08-17T00:35:55.255Z,19.40
2022-08-17T00:40:58.999Z,19.30
2022-08-17T00:46:01.084Z,19.20
2022-08-17T00:51:02.700Z,19.20
2022-08-17T00:56:04.458Z,19.10
2022-08-17T01:01:06.274Z,19.10
2022-08-17T01:06:07.979Z,19.10
2022-08-17T01:11:10.033Z,19.00
2022-08-17T01:16:11.791Z,18.90
2022-08-17T01:21:13.534Z,18.90
2022-08-17T01:26:15.283Z,18.80
2022-08-17T01:31:17.077Z,18.80
2022-08-17T01:36:18.809Z,18.80
2022-08-17T01:41:20.553Z,18.80
2022-08-17T01:46:22.315Z,18.80
2022-08-17T01:51:24.086Z,18.80
2022-08-17T01:56:25.818Z,18.70
2022-08-17T02:01:27.598Z,18.70
2022-08-17T02:06:29.332Z,18.60
2022-08-17T02:11:31.107Z,18.60
2022-08-17T02:16:37.755Z,18.60
2022-08-17T02:21:39.924Z,18.50
2022-08-17T02:26:41.690Z,18.50
2022-08-17T02:31:43.428Z,18.50
2022-08-17T02:36:45.231Z,18.40
2022-08-17T02:41:46.941Z,18.40
2022-08-17T02:46:48.694Z,18.40
2022-08-17T02:51:50.242Z,18.40
2022-08-17T02:56:51.887Z,18.20
2022-08-17T03:01:53.747Z,18.10
2022-08-17T03:06:55.379Z,18.10
2022-08-17T03:11:58.711Z,18.00
2022-08-17T03:17:00.286Z,17.90
2022-08-17T03:22:19.809Z,17.80
2022-08-17T03:27:23.472Z,17.80
2022-08-17T03:32:25.180Z,17.70
2022-08-17T03:37:26.918Z,17.70
2022-08-17T03:42:31.804Z,17.80
2022-08-17T03:47:34.511Z,17.80
2022-08-17T03:52:36.273Z,17.70
2022-08-17T03:57:38.047Z,17.70
2022-08-17T04:02:39.750Z,17.60
2022-08-17T04:07:41.481Z,17.60
2022-08-17T04:12:43.334Z,17.60
2022-08-17T04:17:45.049Z,17.60
2022-08-17T04:22:46.827Z,17.60
2022-08-17T04:27:51.983Z,17.60
2022-08-17T04:33:03.523Z,17.70
2022-08-17T04:38:12.710Z,17.70
2022-08-17T04:43:14.473Z,17.80
2022-08-17T04:48:20.290Z,17.80
2022-08-17T04:53:22.086Z,17.90
2022-08-17T04:58:23.817Z,18.00
2022-08-17T05:03:25.378Z,18.20
2022-08-17T05:08:27.029Z,18.30
2022-08-17T05:13:28.765Z,18.50
2022-08-17T05:18:30.411Z,19.10
2022-08-17T05:23:42.063Z,20.70
2022-08-17T05:28:44.994Z,21.80
2022-08-17T05:33:47.633Z,22.60
2022-08-17T05:38:49.237Z,23.30
2022-08-17T05:43:54.384Z,23.80
2022-08-17T05:48:57.858Z,24.20
2022-08-17T05:53:59.415Z,24.80
2022-08-17T05:59:01.075Z,25.40
2022-08-17T06:04:02.651Z,25.90
2022-08-17T06:09:04.370Z,26.20
2022-08-17T06:14:06.179Z,26.80
2022-08-17T06:19:07.870Z,27.30
2022-08-17T06:24:09.554Z,27.50
2022-08-17T06:29:18.681Z,27.60
2022-08-17T06:34:20.650Z,28.20
2022-08-17T06:39:22.316Z,28.80
2022-08-17T06:44:42.172Z,29.30
2022-08-17T06:49:45.757Z,29.80
2022-08-17T06:54:47.521Z,30.50
2022-08-17T06:59:56.357Z,30.90
2022-08-17T07:04:58.533Z,31.20
2022-08-17T07:10:00.302Z,31.60
2022-08-17T07:15:02.104Z,32.10
2022-08-17T07:20:03.702Z,32.50
2022-08-17T07:25:05.553Z,32.90
2022-08-17T07:30:10.617Z,33.30
2022-08-17T07:35:12.828Z,33.50
2022-08-17T07:40:17.247Z,33.50
2022-08-17T07:45:18.900Z,33.80
2022-08-17T07:50:25.364Z,33.90
2022-08-17T07:55:27.424Z,34.40
2022-08-17T08:00:32.241Z,34.70
2022-08-17T08:05:49.843Z,35.00
2022-08-17T08:10:52.057Z,35.10
2022-08-17T08:15:54.649Z,35.10
2022-08-17T08:20:56.507Z,35.40
2022-08-17T08:25:58.256Z,35.80
2022-08-17T08:30:59.856Z,35.90
2022-08-17T08:36:01.463Z,35.70
2022-08-17T08:41:03.028Z,35.90
2022-08-17T08:46:04.609Z,36.30
2022-08-17T08:51:06.196Z,36.40
2022-08-17T08:56:10.113Z,36.70
2022-08-17T09:01:17.124Z,36.80
2022-08-17T09:06:33.313Z,37.30
2022-08-17T09:12:02.109Z,37.00
2022-08-17T09:17:02.795Z,36.80
2022-08-17T09:22:04.579Z,36.70
2022-08-17T09:27:06.303Z,36.70
2022-08-17T09:32:08.065Z,36.80
2022-08-17T09:37:09.848Z,37.00
2022-08-17T09:42:11.399Z,37.00
2022-08-17T09:47:12.971Z,37.20
2022-08-17T09:52:14.758Z,37.60
2022-08-17T09:57:29.796Z,37.90
2022-08-17T10:02:32.368Z,37.90
2022-08-17T10:07:34.191Z,38.20
2022-08-17T10:12:35.921Z,38.00
2022-08-17T10:17:39.837Z,38.10
2022-08-17T10:22:41.406Z,38.30
2022-08-17T10:27:43.433Z,38.10
2022-08-17T10:32:45.106Z,38.00
2022-08-17T10:37:46.780Z,38.10
2022-08-17T10:42:48.395Z,37.90
2022-08-17T10:47:55.417Z,38.10
2022-08-17T10:52:57.742Z,38.30
2022-08-17T10:57:59.345Z,38.00
2022-08-17T11:03:00.957Z,37.80
2022-08-17T11:08:02.701Z,37.90
2022-08-17T11:13:06.327Z,37.70
2022-08-17T11:18:08.087Z,37.70
2022-08-17T11:23:09.642Z,37.70
2022-08-17T11:28:11.201Z,37.40
2022-08-17T11:33:13.050Z,37.20
2022-08-17T11:38:16.346Z,36.70
2022-08-17T11:43:18.427Z,36.10
2022-08-17T11:48:28.858Z,35.70
2022-08-17T11:53:31.028Z,35.40
2022-08-17T11:58:32.587Z,35.40
2022-08-17T12:03:34.339Z,35.60
2022-08-17T12:08:35.980Z,36.00
2022-08-17T12:13:39.697Z,36.30
2022-08-17T12:18:41.535Z,36.60
2022-08-17T12:23:44.177Z,36.80
2022-08-17T12:28:46.139Z,36.80
2022-08-17T12:33:47.728Z,36.40
2022-08-17T12:38:49.313Z,36.10
2022-08-17T12:43:50.887Z,36.50
2022-08-17T12:48:59.208Z,36.50
2022-08-17T12:54:01.568Z,36.30
2022-08-17T12:59:03.278Z,36.60
2022-08-17T13:04:04.994Z,36.80
2022-08-17T13:09:06.556Z,36.90
2022-08-17T13:14:08.180Z,36.80
2022-08-17T13:19:09.948Z,36.90
2022-08-17T13:24:11.605Z,37.00
2022-08-17T13:29:13.453Z,36.90
2022-08-17T13:34:15.199Z,36.70
2022-08-17T13:39:17.019Z,36.80
2022-08-17T13:44:18.608Z,37.00
2022-08-17T13:49:20.280Z,37.00
2022-08-17T13:54:21.851Z,37.00
2022-08-17T13:59:53.622Z,36.80
2022-08-17T14:04:45.253Z,36.90
2022-08-17T14:09:46.923Z,36.90
2022-08-17T14:14:48.769Z,36.60
2022-08-17T14:19:50.403Z,36.30
2022-08-17T14:24:51.970Z,36.30
2022-08-17T14:29:53.709Z,36.20
2022-08-17T14:34:55.458Z,35.90
2022-08-17T14:39:57.093Z,35.70
2022-08-17T14:44:58.786Z,35.40
2022-08-17T14:50:00.422Z,35.20
2022-08-17T14:55:02.170Z,35.00
2022-08-17T15:00:03.920Z,34.90
2022-08-17T15:05:05.683Z,34.90
2022-08-17T15:10:07.516Z,34.90
2022-08-17T15:15:09.188Z,35.10
2022-08-17T15:20:14.694Z,35.10
2022-08-17T15:25:16.766Z,35.20
2022-08-17T15:30:18.515Z,35.30
2022-08-17T15:35:26.855Z,35.20
2022-08-17T15:40:30.608Z,35.20
2022-08-17T15:45:36.742Z,35.10
2022-08-17T15:50:38.410Z,35.10
2022-08-17T15:55:40.007Z,35.10
2022-08-17T16:00:53.169Z,35.00
2022-08-17T16:06:03.207Z,35.00
2022-08-17T16:11:04.943Z,35.00
2022-08-17T16:16:06.695Z,34.90
2022-08-17T16:21:08.298Z,34.70
2022-08-17T16:26:09.896Z,34.60
2022-08-17T16:31:11.662Z,34.40
2022-08-17T16:36:13.303Z,34.20
2022-08-17T16:41:15.148Z,34.20
2022-08-17T16:46:16.897Z,34.10
2022-08-17T16:51:18.455Z,34.00
2022-08-17T16:56:20.100Z,33.80
2022-08-17T17:01:21.738Z,33.60
2022-08-17T17:06:23.333Z,33.60
2022-08-17T17:11:25.052Z,33.50
2022-08-17T17:16:26.694Z,33.40
2022-08-17T17:21:28.505Z,33.20
2022-08-17T17:26:30.376Z,33.10
2022-08-17T17:31:32.067Z,32.90
2022-08-17T17:36:33.710Z,32.60
2022-08-17T17:41:35.253Z,32.20
2022-08-17T17:46:36.844Z,31.80
2022-08-17T17:51:54.956Z,31.40
2022-08-17T17:57:00.267Z,31.00
2022-08-17T18:02:02.037Z,30.60
2022-08-17T18:07:03.682Z,30.20
2022-08-17T18:12:05.249Z,29.90
2022-08-17T18:17:07.583Z,29.60
2022-08-17T18:22:14.148Z,29.20
2022-08-17T18:27:16.107Z,29.00
2022-08-17T18:32:17.870Z,28.90
2022-08-17T18:37:19.578Z,28.70
2022-08-17T18:42:21.422Z,28.50
2022-08-17T18:47:23.039Z,28.20
2022-08-17T18:52:24.914Z,27.90
2022-08-17T18:57:26.642Z,27.70
2022-08-17T19:02:44.707Z,27.50
2022-08-17T19:07:47.794Z,27.20
2022-08-17T19:12:49.489Z,27.10
2022-08-17T19:17:51.331Z,27.00
2022-08-17T19:22:53.081Z,26.90
2022-08-17T19:27:57.810Z,26.80
2022-08-17T19:32:59.606Z,26.70
2022-08-17T19:38:01.354Z,26.50
2022-08-17T19:43:03.116Z,26.50
2022-08-17T19:48:05.172Z,26.30
2022-08-17T19:53:06.968Z,26.20
2022-08-17T19:58:08.700Z,26.10
2022-08-17T20:03:16.129Z,26.00
2022-08-17T20:08:18.887Z,25.90
2022-08-17T20:13:33.352Z,25.70
2022-08-17T20:18:35.879Z,25.50
2022-08-17T20:23:37.626Z,25.40
2022-08-17T20:28:39.416Z,25.40
2022-08-17T20:33:41.127Z,25.30
2022-08-17T20:38:42.887Z,25.10
2022-08-17T20:43:44.680Z,25.00
2022-08-17T20:48:46.930Z,25.00
2022-08-17T20:53:48.774Z,24.90
2022-08-17T20:58:50.408Z,24.90
2022-08-17T21:03:52.428Z,24.80
2022-08-17T21:08:54.081Z,24.70
2022-08-17T21:13:55.801Z,24.60
2022-08-17T21:18:57.349Z,24.50
2022-08-17T21:23:59.018Z,24.40
2022-08-17T21:29:01.667Z,24.30
2022-08-17T21:34:22.368Z,24.20
2022-08-17T21:39:24.090Z,24.20
2022-08-17T21:44:33.057Z,24.30
2022-08-17T21:49:37.658Z,24.40
2022-08-17T21:54:39.445Z,24.40
2022-08-17T21:59:41.151Z,24.40
2022-08-17T22:04:42.906Z,24.40
2022-08-17T22:09:44.638Z,24.30
2022-08-17T22:14:51.736Z,24.30
2022-08-17T22:19:55.359Z,24.20
2022-08-17T22:24:57.706Z,24.10
2022-08-17T22:29:59.362Z,24.00
2022-08-17T22:35:00.918Z,23.90
2022-08-17T22:40:02.774Z,23.80
2022-08-17T22:45:04.466Z,23.60
2022-08-17T22:50:06.194Z,23.50
2022-08-17T22:55:09.163Z,23.40
2022-08-17T23:00:11.277Z,23.20
2022-08-17T23:05:14.319Z,23.10
2022-08-17T23:10:16.043Z,23.10
2022-08-17T23:15:17.793Z,22.90
2022-08-17T23:20:19.581Z,22.90
2022-08-17T23:25:21.306Z,22.90
2022-08-17T23:30:24.113Z,22.70
2022-08-17T23:35:40.613Z,22.60
2022-08-17T23:40:42.891Z,22.40
2022-08-17T23:45:44.453Z,22.30
2022-08-17T23:50:46.164Z,22.30
2022-08-17T23:55:47.927Z,22.20
